Time;durP1;ratioP1;P1;durP2;ratioP2;P2;SDS_P1;SDS_P2;PMS_P1;PMS_P2;Temp;Humidity;BMP_temperature;BMP_pressure;BME280_temperature;BME280_humidity;BME280_pressure;Samples;Min_cycle;Max_cycle;Signal;HPM_P1;HPM_P2
2022/03/27 00:00:22;;;;;;;25.00;16.73;;;6.40;59.90;;;5.31;66.53;99173.00;5000830;28;20483;-69
2022/03/27 00:02:50;;;;;;;21.33;15.80;;;6.50;59.90;;;5.30;65.85;99179.34;4994626;28;20487;-69
2022/03/27 00:05:17;;;;;;;26.20;16.30;;;6.50;59.90;;;5.23;66.24;99180.94;5012083;28;20993;-69
2022/03/27 00:07:44;;;;;;;23.53;17.00;;;6.50;60.10;;;5.16;66.86;99180.75;5000084;28;20463;-69
2022/03/27 00:10:11;;;;;;;23.33;17.53;;;6.40;60.20;;;5.01;67.10;99177.72;4995977;28;20447;-68
2022/03/27 00:12:39;;;;;;;24.87;17.53;;;6.30;60.70;;;5.04;67.63;99188.13;4997412;28;20488;-69
2022/03/27 00:15:09;;;;;;;22.80;16.97;;;6.30;61.10;;;5.08;67.09;99183.31;4991035;28;20549;-69
2022/03/27 00:17:36;;;;;;;19.10;16.40;;;6.30;61.20;;;4.73;66.94;99137.56;4999756;28;20568;-69
2022/03/27 00:20:08;;;;;;;19.67;15.77;;;6.30;61.40;;;4.99;67.12;99179.72;5002346;28;20517;-69
2022/03/27 00:22:36;;;;;;;23.97;16.13;;;6.20;61.50;;;4.88;67.71;99171.88;4997586;28;20451;-68
2022/03/27 00:25:04;;;;;;;22.90;15.90;;;6.10;61.70;;;4.75;68.16;99170.41;5009673;28;20503;-69
2022/03/27 00:27:32;;;;;;;24.50;16.87;;;6.10;62.00;;;4.65;68.74;99177.66;5000749;28;20472;-70
2022/03/27 00:30:01;;;;;;;29.40;17.37;;;6.00;62.30;;;4.58;68.53;99166.69;4997763;28;20456;-71
2022/03/27 00:32:28;;;;;;;23.60;17.23;;;5.90;62.80;;;4.61;69.08;99186.97;4998688;28;21034;-69
2022/03/27 00:34:55;;;;;;;24.83;17.47;;;5.90;62.90;;;4.46;69.42;99190.13;5001783;28;20502;-70
2022/03/27 00:37:23;;;;;;;28.10;16.80;;;5.80;63.30;;;4.47;69.65;99199.84;5019056;28;20450;-69
2022/03/27 00:39:50;;;;;;;24.53;17.73;;;5.70;64.10;;;4.54;69.56;99187.56;5001418;28;20462;-70
2022/03/27 00:42:20;;;;;;;25.63;16.83;;;5.80;64.60;;;4.43;69.19;99185.06;5001182;28;20561;-71
2022/03/27 00:44:47;;;;;;;24.70;18.07;;;5.80;64.60;;;4.29;70.23;99189.06;4996649;28;20491;-69
2022/03/27 00:47:15;;;;;;;30.03;17.77;;;5.60;64.80;;;4.06;71.24;99177.88;5000466;28;20925;-69
2022/03/27 00:49:42;;;;;;;25.63;17.00;;;5.40;66.00;;;4.03;71.85;99191.56;5003067;28;20455;-69
2022/03/27 00:52:09;;;;;;;22.63;16.77;;;5.30;67.30;;;3.99;71.64;99190.13;5003303;28;20592;-69
2022/03/27 00:54:36;;;;;;;25.47;17.03;;;5.20;68.10;;;3.90;72.37;99194.50;4997967;28;21395;-69
2022/03/27 00:57:04;;;;;;;22.03;16.10;;;5.20;69.40;;;3.96;72.19;99194.78;5000593;28;20513;-69
2022/03/27 00:59:31;;;;;;;23.97;16.43;;;5.10;70.00;;;4.05;72.00;99193.06;5020973;28;20525;-69
2022/03/27 01:02:01;;;;;;;27.70;19.00;;;5.20;70.10;;;4.24;71.86;99181.47;5009303;28;20545;-69
2022/03/27 01:04:30;;;;;;;24.90;17.97;;;5.30;70.40;;;4.28;70.97;99184.72;5003068;28;20459;-68
2022/03/27 01:06:57;;;;;;;24.60;16.17;;;5.40;69.70;;;4.37;71.04;99185.66;5002629;28;20467;-69
2022/03/27 01:09:39;;;;;;;23.57;16.73;;;5.60;69.50;;;4.39;71.02;99184.50;4998156;28;20451;-68
2022/03/27 01:12:22;;;;;;;19.30;15.10;;;5.60;68.80;;;4.30;70.87;99185.41;4997170;28;20474;-68
2022/03/27 01:14:50;;;;;;;23.50;16.27;;;5.60;68.70;;;4.32;70.27;99178.06;5003854;28;20455;-68
2022/03/27 01:17:19;;;;;;;26.07;16.37;;;5.60;68.60;;;4.21;70.72;99179.09;5002114;28;20731;-68
2022/03/27 01:19:50;;;;;;;24.13;16.90;;;5.50;69.00;;;4.13;71.17;99172.78;4999870;28;20460;-69
2022/03/27 01:22:20;;;;;;;20.13;14.73;;;5.40;69.30;;;4.23;70.62;99177.13;5001091;28;20882;-69
2022/03/27 01:24:50;;;;;;;23.50;16.47;;;5.50;69.30;;;4.14;71.21;99177.97;5016095;28;20462;-69
2022/03/27 01:27:18;;;;;;;19.40;15.63;;;5.50;69.10;;;3.91;71.92;99174.81;5006130;28;20462;-69
2022/03/27 01:29:46;;;;;;;19.70;16.07;;;5.30;69.40;;;3.84;71.84;99163.84;5020060;28;20978;-69
2022/03/27 01:32:14;;;;;;;24.70;17.60;;;5.20;69.70;;;3.64;72.78;99168.38;5006348;28;20475;-69
2022/03/27 01:34:44;;;;;;;21.90;15.33;;;5.00;70.50;;;3.63;73.21;99167.53;5016531;28;21124;-69
2022/03/27 01:37:14;;;;;;;26.10;16.73;;;4.90;71.40;;;3.71;72.67;99168.66;4999062;28;20546;-69
2022/03/27 01:39:43;;;;;;;24.37;15.33;;;5.00;71.70;;;3.83;72.03;99170.19;4997560;28;20463;-70
2022/03/27 01:42:10;;;;;;;29.30;16.53;;;5.10;71.80;;;3.68;73.27;99165.28;4999878;28;20458;-69
2022/03/27 01:44:37;;;;;;;20.10;15.53;;;5.00;71.90;;;3.74;72.62;99169.22;4995276;28;20463;-69
2022/03/27 01:47:05;;;;;;;24.90;16.07;;;5.00;71.90;;;3.73;72.88;99164.03;5000943;28;20569;-68
2022/03/27 01:49:32;;;;;;;27.20;17.10;;;5.00;71.80;;;3.59;73.49;99163.47;5018255;28;20993;-68
2022/03/27 01:51:59;;;;;;;24.37;16.50;;;4.90;72.30;;;3.59;73.33;99160.81;5003322;28;20483;-68
2022/03/27 01:54:26;;;;;;;22.17;16.10;;;4.90;72.40;;;3.68;73.19;99162.59;4998786;28;20451;-68
2022/03/27 01:56:55;;;;;;;26.70;17.80;;;4.90;72.50;;;3.74;72.69;99157.69;5007720;28;20466;-69
2022/03/27 01:59:22;;;;;;;23.87;16.23;;;5.00;72.50;;;3.74;73.24;99165.72;4999643;28;20467;-69
2022/03/27 02:01:49;;;;;;;25.07;16.53;;;5.00;72.40;;;3.74;72.98;99157.69;5018567;28;20458;-69
2022/03/27 02:04:16;;;;;;;23.97;18.17;;;5.00;72.30;;;3.41;73.26;99109.91;4998809;28;20573;-69
2022/03/27 02:06:46;;;;;;;22.50;16.00;;;5.00;72.40;;;3.66;73.72;99159.22;5004584;28;20471;-70
2022/03/27 02:09:13;;;;;;;27.20;17.30;;;5.00;72.50;;;3.64;72.95;99163.03;5001055;28;20481;-70
2022/03/27 02:11:41;;;;;;;25.57;16.53;;;4.90;72.60;;;3.67;73.37;99168.94;4995736;28;20467;-69
2022/03/27 02:14:10;;;;;;;21.70;16.63;;;4.90;72.90;;;3.61;73.33;99148.13;4997774;28;20470;-68
2022/03/27 02:16:37;;;;;;;26.00;16.80;;;5.00;73.00;;;3.67;73.79;99165.44;5008453;28;20866;-68
2022/03/27 02:19:08;;;;;;;23.13;17.10;;;5.00;72.80;;;3.65;73.33;99162.06;5016525;28;20831;-68
2022/03/27 02:21:35;;;;;;;22.90;16.43;;;5.00;72.90;;;3.64;73.89;99161.22;5002001;28;20472;-69
2022/03/27 02:24:03;;;;;;;21.67;16.40;;;5.00;72.90;;;3.53;73.73;99140.84;5003698;28;20539;-69
2022/03/27 02:26:30;;;;;;;23.90;16.07;;;5.00;72.80;;;3.49;73.64;99139.44;4999582;28;20466;-68
2022/03/27 02:28:57;;;;;;;22.93;17.50;;;5.00;73.00;;;3.60;73.77;99165.16;5015711;28;20471;-69
2022/03/27 02:31:26;;;;;;;27.00;18.17;;;4.90;73.10;;;3.47;73.89;99159.25;5003439;28;20483;-69
2022/03/27 02:33:53;;;;;;;30.83;17.60;;;4.80;73.40;;;3.40;74.42;99162.47;5000427;28;20515;-69
2022/03/27 02:36:20;;;;;;;28.87;17.53;;;4.70;73.80;;;3.40;74.42;99165.16;5002731;28;20483;-68
2022/03/27 02:38:47;;;;;;;22.80;16.83;;;4.70;74.00;;;3.46;74.52;99155.72;5003633;28;20466;-69
2022/03/27 02:41:15;;;;;;;30.57;17.40;;;4.70;74.40;;;3.47;73.98;99162.75;5005607;28;20458;-69
2022/03/27 02:43:42;;;;;;;22.83;17.00;;;4.70;74.10;;;3.49;74.37;99157.28;4995398;28;20463;-69
2022/03/27 02:46:09;;;;;;;25.67;17.40;;;4.80;74.40;;;3.53;74.16;99166.69;4994947;28;20468;-69
2022/03/27 02:48:37;;;;;;;24.03;17.60;;;4.80;74.30;;;3.52;74.64;99160.53;4995487;28;20454;-68
2022/03/27 02:51:05;;;;;;;21.73;17.43;;;4.80;74.30;;;3.50;74.46;99153.63;5019677;28;20446;-69
2022/03/27 02:53:32;;;;;;;25.13;17.00;;;4.80;74.20;;;3.46;74.54;99155.72;5000513;28;20573;-69
2022/03/27 02:55:59;;;;;;;30.60;18.10;;;4.80;74.40;;;3.28;75.14;99139.59;5001591;28;20973;-68
2022/03/27 02:58:26;;;;;;;34.47;18.10;;;4.70;74.50;;;3.39;75.09;99154.63;4995116;28;20463;-67
2022/03/27 03:00:53;;;;;;;25.00;19.30;;;4.70;75.00;;;3.30;75.21;99159.00;5008833;28;20454;-68
2022/03/27 03:03:21;;;;;;;29.63;17.60;;;4.70;75.20;;;3.33;75.58;99155.16;4995296;28;20935;-67
2022/03/27 03:05:51;;;;;;;21.60;17.37;;;4.70;75.60;;;3.32;75.22;99153.50;5013730;28;21251;-69
2022/03/27 03:08:19;;;;;;;22.27;18.23;;;4.70;75.50;;;3.32;75.09;99158.81;5004553;28;20562;-69
2022/03/27 03:10:47;;;;;;;29.50;17.77;;;4.60;75.30;;;3.30;75.82;99158.13;5015012;28;20471;-69
2022/03/27 03:13:14;;;;;;;33.30;18.63;;;4.60;75.50;;;3.34;75.08;99163.06;5001500;28;20486;-68
2022/03/27 03:15:44;;;;;;;28.73;18.47;;;4.60;75.50;;;3.31;75.04;99160.69;4995124;28;20490;-69
2022/03/27 03:18:11;;;;;;;25.47;18.23;;;4.70;75.50;;;3.29;75.14;99167.13;4999109;28;20462;-70
2022/03/27 03:20:39;;;;;;;25.87;18.97;;;4.60;75.40;;;3.20;75.28;99160.81;4997667;28;20488;-70
2022/03/27 03:23:08;;;;;;;23.90;17.50;;;4.60;75.40;;;3.15;75.34;99163.88;4998994;28;20487;-70
2022/03/27 03:25:35;;;;;;;23.20;16.90;;;4.50;75.50;;;3.08;75.94;99163.59;4998326;28;20570;-70
2022/03/27 03:28:02;;;;;;;21.50;16.40;;;4.40;75.80;;;3.01;76.18;99162.47;5003552;28;20458;-70
2022/03/27 03:30:30;;;;;;;25.40;17.53;;;4.40;76.30;;;3.02;76.29;99152.63;4998021;28;20849;-70
2022/03/27 03:32:57;;;;;;;24.87;16.83;;;4.40;76.40;;;2.84;76.63;99153.31;5000673;28;20471;-70
2022/03/27 03:35:24;;;;;;;23.47;18.67;;;4.30;76.40;;;2.73;77.31;99156.94;5000166;28;20844;-69
2022/03/27 03:37:51;;;;;;;23.47;17.63;;;4.10;76.90;;;2.62;77.64;99155.25;4999736;28;20556;-71
2022/03/27 03:40:19;;;;;;;24.73;17.57;;;4.00;77.70;;;2.67;77.80;99146.84;4999721;28;21143;-70
2022/03/27 03:42:46;;;;;;;26.83;18.37;;;4.00;78.50;;;2.62;77.75;99151.72;4996798;28;20451;-69
2022/03/27 03:45:13;;;;;;;23.80;17.40;;;4.00;78.20;;;2.63;77.96;99153.41;5014467;28;20515;-71
2022/03/27 03:47:40;;;;;;;22.30;17.83;;;3.90;78.90;;;2.76;77.62;99153.16;5000986;28;21364;-69
2022/03/27 03:50:09;;;;;;;27.77;18.60;;;4.00;78.90;;;2.70;77.43;99157.22;5015272;28;21150;-70
2022/03/27 03:52:36;;;;;;;26.43;17.60;;;4.10;78.70;;;2.60;77.82;99156.34;4999120;28;20463;-69
2022/03/27 03:55:03;;;;;;;25.40;17.03;;;4.00;78.40;;;2.73;77.32;99162.28;4999295;28;20562;-69
2022/03/27 03:57:31;;;;;;;25.00;17.80;;;4.00;78.70;;;2.70;77.43;99151.88;5013137;28;20498;-69
2022/03/27 03:59:59;;;;;;;30.13;18.63;;;4.00;78.70;;;2.57;77.96;99159.28;5002297;28;20521;-69
2022/03/27 04:02:26;;;;;;;20.73;16.70;;;4.00;78.50;;;2.18;78.94;99130.66;5002098;28;20491;-68
2022/03/27 04:04:53;;;;;;;21.77;17.03;;;3.80;79.50;;;2.32;79.12;99161.44;5014806;28;20822;-68
2022/03/27 04:07:20;;;;;;;24.00;17.17;;;3.70;80.20;;;2.39;78.94;99154.63;4998742;28;20463;-68
2022/03/27 04:09:47;;;;;;;24.10;17.83;;;3.70;80.80;;;2.51;78.10;99156.19;5002157;28;21048;-68
2022/03/27 04:12:14;;;;;;;23.43;16.90;;;3.80;80.10;;;2.52;77.72;99159.69;5004871;28;20879;-68
2022/03/27 04:14:43;;;;;;;25.17;16.40;;;3.80;79.10;;;2.23;79.27;99169.28;5003839;28;20470;-68
2022/03/27 04:17:11;;;;;;;24.60;16.33;;;3.70;79.90;;;2.03;80.30;99168.34;5006761;28;20497;-68
2022/03/27 04:19:40;;;;;;;28.50;18.63;;;3.50;81.30;;;1.96;80.83;99168.03;5006263;28;20439;-68
2022/03/27 04:22:07;;;;;;;21.63;17.30;;;3.30;82.10;;;1.98;80.40;99168.72;5003577;28;20451;-69
2022/03/27 04:24:34;;;;;;;26.23;18.30;;;3.30;82.70;;;1.86;81.68;99169.78;5001953;28;20493;-68
2022/03/27 04:27:01;;;;;;;24.30;17.80;;;3.30;83.40;;;1.76;82.01;99168.91;5007557;28;20541;-68
2022/03/27 04:29:28;;;;;;;25.13;17.80;;;3.20;84.00;;;1.84;81.87;99177.06;4999103;28;20462;-69
2022/03/27 04:31:57;;;;;;;26.50;18.73;;;3.10;84.70;;;2.17;79.83;99169.81;5010017;28;20477;-68
2022/03/27 04:34:24;;;;;;;24.97;16.83;;;3.40;83.80;;;2.35;78.39;99166.50;5001921;28;20517;-70
2022/03/27 04:36:52;;;;;;;25.50;19.20;;;3.60;81.50;;;2.26;78.82;99179.69;5014712;28;20464;-72
2022/03/27 04:39:19;;;;;;;25.80;17.77;;;3.60;80.80;;;1.94;80.08;99164.66;4999251;28;20992;-71
2022/03/27 04:41:46;;;;;;;29.17;18.13;;;3.50;81.20;;;1.83;80.78;99172.72;5001483;28;20565;-68
2022/03/27 04:44:14;;;;;;;29.33;18.73;;;3.30;82.50;;;1.77;81.14;99189.25;4999667;28;20469;-68
2022/03/27 04:46:41;;;;;;;27.80;18.40;;;3.20;83.70;;;1.45;81.15;99113.72;5002322;28;20524;-69
2022/03/27 04:49:09;;;;;;;26.97;18.60;;;3.20;84.30;;;2.05;80.47;99178.88;5004224;28;20459;-69
2022/03/27 04:51:36;;;;;;;29.37;18.03;;;3.30;83.80;;;2.07;80.28;99179.59;5001213;28;20612;-69
2022/03/27 04:54:03;;;;;;;24.23;18.03;;;3.40;83.40;;;2.07;79.80;99177.75;4999603;28;20475;-69
2022/03/27 04:56:31;;;;;;;27.50;18.30;;;3.40;82.50;;;2.01;79.79;99177.44;5000883;28;20471;-68
2022/03/27 04:58:58;;;;;;;28.73;17.77;;;3.40;82.10;;;1.85;80.97;99178.75;4995783;28;20451;-68
2022/03/27 05:01:25;;;;;;;27.93;17.13;;;3.30;82.90;;;1.70;81.43;99184.41;5010052;28;20553;-69
2022/03/27 05:03:52;;;;;;;25.40;18.33;;;3.10;83.70;;;1.67;82.13;99198.00;4997775;28;21025;-69
2022/03/27 05:06:20;;;;;;;25.10;18.47;;;3.10;84.80;;;1.68;81.85;99188.19;5001530;28;20467;-69
2022/03/27 05:08:47;;;;;;;24.23;17.20;;;3.10;85.00;;;1.95;80.55;99187.66;4998471;28;20564;-68
2022/03/27 05:11:14;;;;;;;24.30;18.40;;;3.20;84.60;;;1.97;79.97;99184.84;4999143;28;20469;-69
2022/03/27 05:13:41;;;;;;;26.27;16.60;;;3.30;82.70;;;1.83;79.98;99184.22;5000866;28;20515;-69
2022/03/27 05:16:08;;;;;;;25.20;16.60;;;3.30;82.50;;;1.70;81.31;99187.06;5015658;28;20485;-69
2022/03/27 05:18:35;;;;;;;27.73;17.57;;;3.20;83.40;;;1.78;81.02;99190.94;4998475;28;20502;-69
2022/03/27 05:21:02;;;;;;;24.83;18.03;;;3.10;84.20;;;1.76;81.22;99192.88;4998548;28;20458;-68
2022/03/27 05:23:30;;;;;;;23.37;17.70;;;3.10;83.90;;;1.70;81.82;99189.75;5002299;28;20455;-67
2022/03/27 05:25:57;;;;;;;25.27;17.37;;;3.10;84.20;;;1.69;81.67;99182.72;4998627;28;20495;-69
2022/03/27 05:28:24;;;;;;;24.53;16.97;;;3.10;84.60;;;2.00;80.21;99194.41;5005953;28;20545;-69
2022/03/27 05:30:52;;;;;;;26.03;16.77;;;3.30;83.40;;;2.08;79.90;99192.78;5004861;28;20514;-68
2022/03/27 05:33:19;;;;;;;21.87;17.00;;;3.40;82.80;;;2.10;79.92;99190.81;5008230;28;20532;-68
2022/03/27 05:35:46;;;;;;;23.27;16.53;;;3.50;82.30;;;1.77;79.86;99135.94;5018124;28;20447;-68
2022/03/27 05:38:13;;;;;;;26.43;17.20;;;3.50;82.10;;;2.04;80.37;99190.50;4995557;28;20577;-69
2022/03/27 05:40:42;;;;;;;22.53;16.43;;;3.50;82.40;;;2.15;79.91;99194.94;5003844;28;20554;-70
2022/03/27 05:43:09;;;;;;;23.10;16.53;;;3.50;82.40;;;2.16;79.16;99170.78;5016241;28;20573;-70
2022/03/27 05:45:36;;;;;;;24.27;17.50;;;3.70;81.60;;;2.52;78.20;99203.25;5017061;28;20955;-69
2022/03/27 05:48:04;;;;;;;23.10;17.20;;;3.80;80.80;;;2.48;77.83;99183.13;5004502;28;20813;-68
2022/03/27 05:50:31;;;;;;;22.27;16.20;;;3.90;79.80;;;2.68;77.66;99191.22;5000811;28;20474;-68
2022/03/27 05:52:58;;;;;;;23.10;17.53;;;4.00;79.20;;;2.67;77.92;99197.53;5001787;28;20598;-68
2022/03/27 05:55:26;;;;;;;19.23;16.10;;;4.00;79.20;;;2.68;77.95;99205.41;5002659;28;20545;-69
2022/03/27 05:57:54;;;;;;;23.50;16.53;;;4.10;79.00;;;2.76;77.88;99203.88;4997062;28;21102;-68
2022/03/27 06:00:22;;;;;;;24.80;15.47;;;4.10;79.50;;;3.10;76.25;99209.69;4996843;28;20532;-70
2022/03/27 06:02:50;;;;;;;20.73;17.00;;;4.30;78.10;;;3.22;75.23;99201.56;4999784;28;20518;-70
2022/03/27 06:05:22;;;;;;;28.67;16.87;;;4.50;77.20;;;3.35;74.52;99202.16;5000023;28;20988;-69
2022/03/27 06:07:51;;;;;;;19.60;15.73;;;4.70;76.20;;;3.44;74.05;99205.81;5004462;28;20466;-69
2022/03/27 06:10:23;;;;;;;27.33;17.10;;;4.80;76.00;;;3.32;75.53;99207.78;5010412;28;20962;-69
2022/03/27 06:12:50;;;;;;;23.27;16.43;;;4.70;76.00;;;3.33;75.47;99204.13;5002170;28;21020;-71
2022/03/27 06:15:20;;;;;;;22.70;17.10;;;4.70;76.40;;;3.38;74.90;99204.53;5007369;28;20458;-70
2022/03/27 06:17:49;;;;;;;23.03;17.47;;;4.80;76.20;;;3.18;74.59;99158.25;5000386;28;20460;-73
2022/03/27 06:20:17;;;;;;;25.60;17.03;;;4.90;76.00;;;3.66;74.67;99210.03;5010929;28;20505;-72
2022/03/27 06:22:45;;;;;;;25.10;16.87;;;5.00;75.80;;;3.78;74.34;99212.56;5022472;28;21067;-71
2022/03/27 06:25:17;;;;;;;26.23;17.00;;;5.10;75.60;;;3.99;73.98;99219.56;5013698;28;20458;-69
2022/03/27 06:27:45;;;;;;;24.20;17.30;;;5.30;75.20;;;4.19;73.16;99210.50;5022694;28;20455;-69
2022/03/27 06:30:15;;;;;;;23.23;17.40;;;5.50;74.80;;;4.37;72.31;99213.25;5003930;28;20466;-68
2022/03/27 06:32:44;;;;;;;23.97;16.77;;;5.60;74.40;;;4.68;71.50;99209.47;5009986;28;20475;-68
2022/03/27 06:35:15;;;;;;;22.17;17.60;;;5.90;74.40;;;5.23;71.22;99216.63;5001907;28;20880;-70
2022/03/27 06:37:43;;;;;;;23.10;17.07;;;6.30;74.70;;;5.19;69.39;99204.53;4999421;28;20546;-71
2022/03/27 06:40:12;;;;;;;23.57;16.20;;;6.40;72.50;;;5.34;69.91;99196.81;5001620;28;20459;-72
2022/03/27 06:42:41;;;;;;;20.97;16.50;;;6.50;72.70;;;5.32;70.48;99209.53;5000590;28;20475;-72
2022/03/27 06:45:10;;;;;;;20.20;16.93;;;6.60;72.30;;;5.54;69.07;99215.44;4998803;28;20463;-72
2022/03/27 06:47:37;;;;;;;25.37;17.20;;;6.80;71.40;;;5.59;68.20;99220.31;4999779;28;20528;-71
2022/03/27 06:50:08;;;;;;;21.93;16.70;;;6.80;70.60;;;5.67;69.28;99209.69;4997896;28;20460;-72
2022/03/27 06:52:37;;;;;;;29.87;18.70;;;6.90;71.00;;;5.88;68.36;99206.66;4999335;28;21031;-72
2022/03/27 06:55:06;;;;;;;32.37;25.77;;;7.10;70.90;;;5.86;67.31;99203.31;4998295;28;20570;-73
2022/03/27 06:57:33;;;;;;;35.10;24.73;;;7.10;69.60;;;5.87;67.56;99198.75;5000187;28;20752;-73
2022/03/27 07:03:06;;;;;;;28.60;20.80;;;7.30;69.50;;;6.27;66.77;99204.59;4994019;28;21080;-71
2022/03/27 07:05:37;;;;;;;23.20;19.10;;;7.40;69.10;;;6.35;66.78;99201.97;4996491;28;20570;-72
2022/03/27 07:08:06;;;;;;;21.60;17.33;;;7.60;69.30;;;6.45;66.91;99208.06;5015970;28;20480;-73
2022/03/27 07:10:34;;;;;;;26.23;19.80;;;7.70;69.30;;;6.53;66.86;99207.28;4997869;28;20559;-72
2022/03/27 07:13:01;;;;;;;24.43;19.13;;;7.70;69.40;;;6.52;67.09;99209.09;4995841;28;20566;-73
2022/03/27 07:15:28;;;;;;;29.30;19.17;;;7.80;68.90;;;6.64;66.78;99204.28;5005147;28;20490;-75
2022/03/27 07:17:55;;;;;;;27.60;19.10;;;7.90;68.70;;;6.75;65.80;99208.56;5011999;28;20516;-72
2022/03/27 07:20:25;;;;;;;22.90;19.10;;;8.00;68.40;;;6.80;66.06;99216.97;5003036;28;20463;-72
2022/03/27 07:22:56;;;;;;;26.83;20.27;;;8.00;68.10;;;6.90;65.60;99214.13;5000350;28;20457;-72
2022/03/27 07:25:25;;;;;;;25.50;20.63;;;8.10;68.00;;;6.97;65.97;99211.66;4997490;28;20565;-71
2022/03/27 07:27:52;;;;;;;28.40;19.70;;;8.20;67.90;;;7.12;65.57;99209.16;4996886;28;20529;-72
2022/03/27 07:30:20;;;;;;;27.27;19.97;;;8.30;68.00;;;7.25;65.24;99214.09;5012208;28;20525;-75
2022/03/27 07:32:52;;;;;;;27.40;21.23;;;8.50;67.90;;;7.50;64.65;99211.41;5014638;28;20923;-72
2022/03/27 07:35:19;;;;;;;24.50;19.97;;;8.60;67.70;;;7.67;63.64;99211.47;5001328;28;20482;-73
2022/03/27 07:37:47;;;;;;;32.20;22.37;;;8.80;66.80;;;7.73;63.08;99216.16;4999789;28;20460;-72
2022/03/27 07:40:16;;;;;;;25.47;20.37;;;8.90;66.40;;;7.73;63.76;99214.28;5017630;28;20546;-73
2022/03/27 07:42:46;;;;;;;24.80;19.30;;;9.00;66.40;;;7.86;63.69;99211.13;5002973;28;20466;-72
2022/03/27 07:45:14;;;;;;;28.03;20.80;;;9.00;66.30;;;7.98;63.30;99214.28;5003398;28;20915;-73
2022/03/27 07:47:42;;;;;;;26.10;20.30;;;9.20;66.20;;;8.21;62.46;99219.81;4991483;28;20459;-71
2022/03/27 07:50:11;;;;;;;29.50;18.87;;;9.30;65.80;;;8.29;63.15;99216.28;5013288;28;20491;-73
2022/03/27 07:52:39;;;;;;;24.77;19.60;;;9.40;65.80;;;8.40;62.51;99215.06;4998628;28;20473;-73
2022/03/27 07:55:08;;;;;;;27.83;20.37;;;9.50;65.60;;;8.45;62.38;99212.72;4997476;28;20464;-73
2022/03/27 07:57:37;;;;;;;28.10;20.03;;;9.60;65.40;;;8.73;61.78;99206.94;4998409;28;20481;-75
2022/03/27 08:00:08;;;;;;;26.20;20.70;;;9.80;65.50;;;8.74;62.26;99208.63;5002778;28;20454;-73
2022/03/27 08:02:35;;;;;;;27.70;20.37;;;9.90;65.40;;;8.86;62.34;99206.38;4998401;28;21672;-73
2022/03/27 08:05:02;;;;;;;31.20;20.53;;;10.00;64.30;;;8.97;61.58;99202.44;5000286;28;20647;-73
2022/03/27 08:07:29;;;;;;;27.00;20.47;;;10.10;64.10;;;9.13;61.56;99204.22;5000138;28;20455;-73
2022/03/27 08:09:56;;;;;;;28.27;21.07;;;10.30;64.00;;;9.38;61.46;99203.25;4998499;28;21099;-73
2022/03/27 08:12:23;;;;;;;23.40;18.40;;;10.40;64.00;;;9.34;61.57;99209.00;4992391;28;20524;-72
2022/03/27 08:14:53;;;;;;;27.00;21.33;;;10.50;63.70;;;9.33;61.47;99206.47;4999727;28;20471;-73
2022/03/27 08:17:21;;;;;;;23.87;20.23;;;10.50;63.50;;;9.54;61.21;99203.13;4995643;28;20503;-73
2022/03/27 08:19:49;;;;;;;34.30;21.33;;;10.60;63.60;;;9.76;60.12;99195.19;4997862;28;20463;-73
2022/03/27 08:22:19;;;;;;;26.30;21.30;;;10.90;63.40;;;9.74;60.02;99186.44;4998919;28;20480;-73
2022/03/27 08:24:46;;;;;;;27.73;20.53;;;10.90;63.10;;;9.99;60.09;99205.13;5000857;28;20448;-72
2022/03/27 08:27:13;;;;;;;27.20;20.87;;;11.00;62.90;;;10.08;59.46;99198.63;4996938;28;20550;-73
2022/03/27 08:29:42;;;;;;;25.17;19.80;;;11.20;62.90;;;10.28;59.48;99195.41;4997329;28;20498;-75
2022/03/27 08:32:15;;;;;;;26.53;20.03;;;11.30;62.70;;;10.56;58.21;99200.22;5001141;28;20452;-79
2022/03/27 08:34:46;;;;;;;24.00;19.33;;;11.60;62.30;;;10.53;58.60;99181.63;5003351;28;20475;-84
2022/03/27 08:37:15;;;;;;;24.67;20.40;;;11.60;62.10;;;10.76;58.34;99195.91;5004419;28;20467;-76
2022/03/27 08:39:44;;;;;;;26.20;19.33;;;11.80;62.10;;;10.96;58.28;99195.31;5018528;28;20963;-84
2022/03/27 08:42:14;;;;;;;24.30;18.73;;;12.00;61.80;;;11.10;57.88;99195.47;5010373;28;20448;-71
2022/03/27 08:44:41;;;;;;;23.20;17.57;;;12.10;61.70;;;11.30;57.68;99184.88;5015870;28;20470;-73
2022/03/27 08:47:18;;;;;;;23.30;18.13;;;12.30;61.80;;;11.44;57.02;99191.25;5015386;28;20451;-72
2022/03/27 08:49:54;;;;;;;24.53;18.67;;;12.40;61.40;;;11.63;56.70;99176.25;4997641;28;21207;-79
2022/03/27 08:52:42;;;;;;;22.30;17.80;;;12.70;61.20;;;11.85;56.81;99187.91;5000107;28;20449;-72
2022/03/27 08:55:19;;;;;;;19.47;17.00;;;12.80;61.00;;;12.00;56.47;99184.28;4996534;28;21066;-73
2022/03/27 08:57:56;;;;;;;21.07;18.20;;;13.00;60.80;;;12.12;56.11;99174.63;4995546;28;20473;-71
2022/03/27 09:00:25;;;;;;;24.87;17.80;;;13.10;60.70;;;12.41;55.73;99185.41;5022392;28;20477;-74
2022/03/27 09:02:54;;;;;;;20.93;17.37;;;13.40;60.70;;;12.60;55.42;99179.31;5009231;28;20552;-74
2022/03/27 09:05:22;;;;;;;19.40;16.83;;;13.60;60.80;;;12.82;55.12;99175.66;5006500;28;20901;-75
2022/03/27 09:07:49;;;;;;;21.47;17.37;;;13.70;60.10;;;12.91;54.14;99139.16;5009038;28;20463;-75
2022/03/27 09:10:18;;;;;;;21.50;16.73;;;14.00;59.80;;;13.16;54.42;99171.19;5010802;28;20501;-76
2022/03/27 09:12:46;;;;;;;20.50;18.20;;;14.10;59.60;;;13.28;54.10;99174.97;5007982;28;20457;-77
2022/03/27 09:15:16;;;;;;;22.60;17.20;;;14.20;59.40;;;13.47;53.57;99167.13;5009844;28;20548;-74
2022/03/27 09:18:04;;;;;;;17.77;14.97;;;14.40;59.00;;;13.65;53.69;99162.94;5009148;28;20458;-74
2022/03/27 09:20:40;;;;;;;17.07;14.63;;;14.60;59.30;;;13.82;53.41;99164.22;5010367;28;20516;-74
2022/03/27 09:23:18;;;;;;;16.00;13.27;;;14.70;58.90;;;13.79;52.77;99159.19;5009522;28;21023;-74
2022/03/27 09:25:53;;;;;;;15.73;13.37;;;14.80;58.30;;;13.95;52.78;99159.81;5024936;28;20856;-73
2022/03/27 09:28:28;;;;;;;17.63;13.73;;;14.90;58.20;;;14.03;52.21;99159.63;5011824;28;20493;-75
2022/03/27 09:30:57;;;;;;;16.53;13.07;;;15.00;57.70;;;14.15;51.99;99163.34;5010701;28;20960;-75
2022/03/27 09:33:47;;;;;;;14.00;12.13;;;15.10;57.70;;;14.12;52.02;99152.09;5008345;28;20554;-76
2022/03/27 09:36:21;;;;;;;13.40;11.83;;;15.20;57.30;;;14.20;51.78;99151.03;5021151;28;20498;-74
2022/03/27 09:39:08;;;;;;;14.50;12.17;;;15.20;57.20;;;14.12;52.00;99155.63;5024657;28;20923;-76
2022/03/27 09:41:42;;;;;;;16.47;11.90;;;15.20;57.20;;;14.41;51.73;99150.78;5009520;28;20875;-74
2022/03/27 09:44:13;;;;;;;12.57;11.17;;;15.40;57.20;;;14.57;50.90;99144.06;5001956;28;20484;-75
2022/03/27 09:47:01;;;;;;;13.20;11.20;;;15.50;56.80;;;14.71;50.19;99153.00;5008840;28;20501;-73
2022/03/27 09:49:47;;;;;;;12.30;11.10;;;15.70;56.40;;;14.91;50.52;99149.38;5001588;28;20487;-75
2022/03/27 09:52:16;;;;;;;12.20;10.90;;;15.80;56.20;;;14.87;49.91;99143.56;5006592;28;20544;-74
2022/03/27 09:54:51;;;;;;;11.70;10.00;;;15.90;55.80;;;14.95;49.91;99133.47;4996863;28;20499;-75
2022/03/27 09:57:24;;;;;;;12.43;11.13;;;15.90;55.80;;;15.09;49.20;99140.50;5007782;28;21017;-76
2022/03/27 09:59:53;;;;;;;11.97;9.90;;;16.00;55.60;;;15.12;49.46;99122.91;5002150;28;20467;-76
2022/03/27 10:02:24;;;;;;;12.43;11.13;;;16.10;55.90;;;15.08;49.28;99133.38;5009016;28;21204;-75
2022/03/27 10:05:05;;;;;;;14.03;11.03;;;16.10;55.40;;;15.00;49.30;99120.88;5024939;28;20498;-75
2022/03/27 10:07:39;;;;;;;10.53;9.43;;;16.00;54.70;;;15.14;49.23;99123.53;5031512;28;20459;-72
2022/03/27 10:10:10;;;;;;;10.73;9.33;;;16.10;55.00;;;15.22;48.42;99106.91;5018046;28;20463;-67
2022/03/27 10:12:38;;;;;;;10.80;8.60;;;16.20;54.50;;;15.49;48.06;99111.38;5005464;28;20456;-77
2022/03/27 10:15:12;;;;;;;14.10;9.90;;;16.40;54.50;;;15.29;48.04;99113.16;5005747;28;20475;-76
2022/03/27 10:17:41;;;;;;;11.57;10.07;;;16.40;54.00;;;15.46;48.33;99107.19;5007585;28;20551;-79
2022/03/27 10:20:13;;;;;;;9.90;8.40;;;16.40;54.50;;;15.57;47.36;99103.75;5021794;28;20980;-79
2022/03/27 10:22:44;;;;;;;8.93;7.90;;;16.50;53.80;;;15.63;47.00;99109.38;5006200;28;20460;-80
2022/03/27 10:25:15;;;;;;;11.70;8.00;;;16.60;53.40;;;15.71;46.80;99103.66;5003159;28;20471;-79
2022/03/27 10:27:45;;;;;;;5.17;4.67;;;16.60;53.20;;;15.79;45.62;99103.34;5000187;28;20467;-81